Thursday, March 05, 2015
02:34 UTC
  |  Log In   |  Register Free
Airport Search:

Tyler Pounds Regional Airport
(KTYR)

FAA data valid effective January 08, 2015 - March 05, 2015 (unless otherwise noted).

 
 
 
 
 
 
 
 
 
 
 
 
 
 

Current Aviation Weather for Tyler Pounds Regional Airport (KTYR)

The most recent METAR observation for KTYR was updated at: 0220
METAR Summary (Translated METAR)
KTYR
050153Z 36016G24KT 8SM -RA BKN007 OVC010 03/01 A3004 RMK AO2 PK WND 32028/0054 SLP170 P0017 T00280011
KJDD
050155Z AUTO 36013G20KT 5SM BR BKN008 OVC013 02/02 A3011 RMK AO2
(23.8 nm NW from KTYR)
KF44
050155Z AUTO 36015G21KT 4SM RA OVC007 01/00 A3006 RMK AO2 P0002
(24.5 nm SW from KTYR)
TAF Summary (Translated TAF)
KTYR
050140Z 0502/0524 04015G25KT P6SM -RA OVC007 TEMPO 0505/0509 3SM SHRA BR SCT010 OVC020 FM050900 01015KT 5SM -FZRA BR OVC015 FM051200 04012G20KT 5SM -SN BR OVC025 FM051400 03012KT P6SM BKN040
  Airport Weather Conditions for KTYR

 Current Weather at TYR
37° F
Light Rain
North winds at 18.4 mph
TYR NOAA Radar

Pressure: 30.04 in
Humidity: 89%
Wind: from the North at 18.4 gusting to 27.6 MPH (16 gusting to 24 KT)
Dew Point: 34.0°F
Visibility: 8.00 mi


Airport Weather Forecast for KTYR

Translated METAR and TAF for KTYR
Translated METAR for KTYR (0234 UTC 05 March 2015)
found at http://aviationweather.gov/adds/metars/
 
METAR text: KTYR 050153Z 36016G24KT 8SM -RA BKN007 OVC010 03/01 A3004 RMK AO2 PK WND 32028/0054 SLP170 P0017 T00280011
Conditions at: KTYR (TYLER , TX, US) observed 0153 UTC 05 March 2015
Temperature: 2.8°C (37°F)
Dewpoint: 1.1°C (34°F) [RH = 89%]
Pressure (altimeter): 30.04 inches Hg (1017.4 mb)
[Sea-level pressure: 1017.0 mb]
Winds: from the N (360 degrees) at 18 MPH (16 knots; 8.3 m/s)
gusting to 28 MPH (24 knots; 12.5 m/s)
Visibility: 8 miles (13 km)
Ceiling: 700 feet AGL
Clouds: broken clouds at 700 feet AGL
overcast cloud deck at 1000 feet AGL
Weather: -RA  (light rain)
Translated TAF for KTYR
Forecast for: KTYR (TYLER , TX, US)
TAF Text: KTYR 050140Z 0502/0524 04015G25KT P6SM -RA OVC007
Forecast period: 0200 to 0900 UTC 05 March 2015
Forecast type: FROM: standard forecast or significant change
Winds: from the NE (40 degrees) at 17 MPH (15 knots; 7.8 m/s)
gusting to 29 MPH (25 knots; 13.0 m/s)
Visibility: 6 or more miles (10+ km)
Ceiling: 700 feet AGL
Clouds: overcast cloud deck at 700 feet AGL
Weather: -RA  (light rain)
TAF Text: TEMPO 0505/0509 3SM SHRA BR SCT010 OVC020
Forecast period: 0500 to 0900 UTC 05 March 2015
Forecast type: TEMPORARY: The following changes expected for less than half the time period
Visibility: 3 miles (5 km)
Ceiling: 2000 feet AGL
Clouds: scattered clouds at 1000 feet AGL
overcast cloud deck at 2000 feet AGL
Weather: SHRA BR  (rain showers, mist)
TAF Text: FM050900 01015KT 5SM -FZRA BR OVC015
Forecast period: 0900 to 1200 UTC 05 March 2015
Forecast type: FROM: standard forecast or significant change
Winds: from the N (10 degrees) at 17 MPH (15 knots; 7.8 m/s)
Visibility: 5 miles (8 km)
Ceiling: 1500 feet AGL
Clouds: overcast cloud deck at 1500 feet AGL
Weather: -FZRA BR  (light freezing rain, mist)
TAF Text: FM051200 04012G20KT 5SM -SN BR OVC025
Forecast period: 1200 to 1400 UTC 05 March 2015
Forecast type: FROM: standard forecast or significant change
Winds: from the NE (40 degrees) at 14 MPH (12 knots; 6.2 m/s)
gusting to 23 MPH (20 knots; 10.4 m/s)
Visibility: 5 miles (8 km)
Ceiling: 2500 feet AGL
Clouds: overcast cloud deck at 2500 feet AGL
Weather: -SN BR  (light snow, mist)
TAF Text: FM051400 03012KT P6SM BKN040
Forecast period: 1400 UTC 05 March 2015 to 0000 UTC 06 March 2015
Forecast type: FROM: standard forecast or significant change
Winds: from the NNE (30 degrees) at 14 MPH (12 knots; 6.2 m/s)
Visibility: 6 or more miles (10+ km)
Ceiling: 4000 feet AGL
Clouds: broken clouds at 4000 feet AGL
Weather: no significant weather forecast for this period

Find All Airport Services Find A Hotel Find A Rental Car Find A Golf Course Find A Restaurant $100 Hamburger



FBO's on the Field
FBO Company Facility Photos Services Transportation Aviation Fuel Prices: Prices include tax
Catering Weather Repair Courtesy Rental Type 100LL JetA JetA+ MOGAS 8087
 
Jet Center of Tyler

Currently rated 5 by 1 person
FS:Phillips 66
Last Updated: Mar-03
Login to update fuel prices
SS:
Contact Jet Center of TylerMore FBO Information
 
Johnson Aviation, Inc

Currently rated 4.1 by 2 people
FS:Avfuel
Last Updated: Feb-26
Login to update fuel prices
SS:
Contact Johnson Aviation, IncMore FBO Information
 
Add another FBO Facility Photos Catering Weather Repair Courtesy Rental Type 100LL JetA JetA+ MOGAS 8087
Services Transportation Aviation Fuel Prices: Prices include tax


model-print
model-print
model-print
model-print